Harg, Missouri
Current Conditions -  °F | °C
As of 4:29 AM on Thursday 18 Dec 2014 (Local Time) from KCOU Reporting Station
Light Snow Light Snow  
Wind Chill: 21°   Ceiling: 3900
Heat Index: 29°   Visibility: 2mi
Dew Point: 27°   Wind: 8mph
Humidity: 92%   Direction: 60°ENE
Pressure: 30.23"   Gusts: NA
Location:  38.8994°N, 92.2391°W
Report Text: KCOU 181029Z AUTO 06007KT 2SM -SN BR SCT022 OVC039 M02/M03 A3023 RMK AO2 P0001 T10171028
Loading
Personal Weather Stations






























Interactive Weather Map New forecast layout! Learn more

10-Day Weather Forecast

Advertisements
Track Severe Weather on mobile